Overview Statistics Trail Chart Weather Telemetry Raw packets
 

This is the latest recevied weather packets stored in our database for station/object K4WCH. If no packets are shown the sender has not sent any weather packets the latest 10 day(s).

<< 85 86 87 88 89 90 91 >>
Time Temp. Humidity Pressure Rain* Wind** Luminosity Snow
1788036302 30° C 77% 1017.5 hPa 0 mm - 439 W/m² -
1788035996 29.44° C 82% 1017.3 hPa 0 mm - 566 W/m² -
1788035696 29.44° C 82% 1017 hPa 0 mm - 639 W/m² -
1788035392 28.89° C 83% 1016.9 hPa 2.29 mm - 651 W/m² -
1788035087 28.89° C 82% 1016.9 hPa 3.05 mm - 682 W/m² -
1788034783 29.44° C 76% 1017.2 hPa 0.51 mm - 703 W/m² -
1788034479 30° C 72% 1017.3 hPa 0 mm - 952 W/m² -
1788034175 30.56° C 73% 1017.8 hPa 0 mm - 998 W/m² -
1788033874 31.67° C 69% 1017.6 hPa 0 mm - 1005 W/m² -
1788033573 31.67° C 69% 1017.7 hPa 0 mm - 954 W/m² -
1788033268 31.11° C 74% 1017.6 hPa 0 mm - 963 W/m² -
1788032965 31.67° C 71% 1017.7 hPa 0 mm - 577 W/m² -
1788032664 30° C 76% 1018.1 hPa 0 mm - 733 W/m² -
1788032359 30° C 76% 1017.9 hPa 0 mm - 733 W/m² -
1788032054 30° C 76% 1017.9 hPa 0 mm - 733 W/m² -
1788031750 30° C 76% 1018 hPa 0 mm - 733 W/m² -
1788031450 30° C 76% 1018.1 hPa 0 mm - 733 W/m² -
1788031157 30° C 76% 1018 hPa 0 mm - 733 W/m² -
1788030849 29.44° C 78% 1017.8 hPa 0 mm - 523 W/m² -
1788030543 25° C 90% 1017.9 hPa 0 mm - 192 W/m² -
1788030239 25° C 90% 1018 hPa 0 mm - 192 W/m² -
1788029933 25° C 90% 1018.2 hPa 0 mm - 192 W/m² -
1788029629 25° C 90% 1018.2 hPa 0 mm - 192 W/m² -
1788029324 25° C 90% 1018.2 hPa 0 mm - 192 W/m² -
1788029022 25° C 90% 1018 hPa 0 mm - 192 W/m² -

* Rain latest hour (hover to see other rain measurements)
** Current wind speed in m/s (hover to see current wind gust speed)